« Back
NWS Peachtree City, Ga » Text Product » AHN Terminal Aerodrome Forecast


Printer-friendly Version
Current Version              Previous Versions:   1  2  3  4  5  6  7  8  9  

Terminal Aerodrome Forecast

448
FTAK31 PAJN 272300
TAFAHN
TAF
PAHN 272320Z 2800/2824 30015KT P6SM SKC
      TEMPO 2800/2804 30015G25KT 5SM BLDU
     FM280400 30010KT P6SM SKC
     FM281500 12006KT P6SM SCT070
      AMD LTD TO CLD VIS AND WIND=

USA.gov is the U.S. government's official web portal to all federal, state and local government web resources and services.